createdAt,value
2023-02-27T00:02:15.420Z,3.90
2023-02-27T00:07:18.030Z,3.67
2023-02-27T00:12:20.481Z,4.13
2023-02-27T00:17:26.035Z,4.22
2023-02-27T00:22:28.168Z,4.90
2023-02-27T00:27:30.477Z,4.30
2023-02-27T00:32:33.184Z,4.15
2023-02-27T00:37:37.152Z,4.00
2023-02-27T00:42:39.695Z,3.50
2023-02-27T00:47:42.815Z,3.88
2023-02-27T00:52:45.056Z,4.32
2023-02-27T00:57:47.315Z,4.93
2023-02-27T01:02:49.681Z,3.20
2023-02-27T01:07:51.797Z,4.30
2023-02-27T01:12:53.933Z,4.25
2023-02-27T01:17:56.092Z,5.70
2023-02-27T01:22:58.244Z,5.75
2023-02-27T01:28:00.726Z,4.18
2023-02-27T01:33:02.927Z,4.57
2023-02-27T01:38:05.054Z,3.75
2023-02-27T01:43:14.704Z,5.65
2023-02-27T01:48:31.081Z,4.07
2023-02-27T01:58:37.866Z,6.05
2023-02-27T02:03:50.858Z,3.83
2023-02-27T02:08:56.315Z,4.68
2023-02-27T02:14:00.440Z,4.32
2023-02-27T02:24:22.752Z,4.15
2023-02-27T02:30:11.126Z,3.60
2023-02-27T02:35:37.296Z,4.32
2023-02-27T02:41:18.489Z,4.30
2023-02-27T02:46:49.531Z,3.95
2023-02-27T02:52:05.001Z,3.97
2023-02-27T02:57:49.227Z,4.18
2023-02-27T03:03:26.866Z,3.95
2023-02-27T03:08:37.542Z,3.75
2023-02-27T03:13:55.664Z,4.30
2023-02-27T03:19:05.952Z,3.92
2023-02-27T03:24:13.357Z,3.83
2023-02-27T03:29:24.105Z,4.40
2023-02-27T03:34:38.674Z,4.75
2023-02-27T03:40:00.773Z,3.85
2023-02-27T03:45:52.185Z,4.03
2023-02-27T03:50:54.758Z,4.63
2023-02-27T03:56:00.041Z,4.00
2023-02-27T04:01:02.382Z,4.28
2023-02-27T04:06:25.254Z,4.28
2023-02-27T04:11:30.271Z,3.60
2023-02-27T04:17:09.516Z,3.90
2023-02-27T04:22:23.524Z,4.20
2023-02-27T04:27:28.553Z,4.57
2023-02-27T04:32:36.456Z,4.13
2023-02-27T04:37:49.217Z,3.72
2023-02-27T04:42:57.467Z,3.58
2023-02-27T04:48:05.847Z,5.18
2023-02-27T04:53:26.143Z,3.55
2023-02-27T04:58:36.690Z,3.78
2023-02-27T05:03:45.353Z,3.55
2023-02-27T05:09:09.368Z,3.95
2023-02-27T05:14:22.113Z,4.38
2023-02-27T05:19:24.296Z,4.93
2023-02-27T05:24:33.348Z,3.75
2023-02-27T05:29:50.624Z,3.47
2023-02-27T05:34:58.585Z,3.85
2023-02-27T05:40:08.527Z,3.70
2023-02-27T05:45:24.706Z,4.32
2023-02-27T05:55:39.420Z,3.85
2023-02-27T06:00:49.455Z,2.72
2023-02-27T06:05:57.605Z,3.15
2023-02-27T06:10:59.836Z,3.25
2023-02-27T06:16:02.048Z,3.30
2023-02-27T06:21:04.566Z,3.78
2023-02-27T06:26:06.726Z,3.97
2023-02-27T06:31:08.947Z,3.80
2023-02-27T06:36:11.260Z,4.10
2023-02-27T06:41:13.692Z,3.47
2023-02-27T06:46:15.751Z,3.58
2023-02-27T06:51:17.917Z,3.22
2023-02-27T06:56:20.145Z,3.65
2023-02-27T07:01:23.775Z,2.95
2023-02-27T07:07:31.179Z,3.90
2023-02-27T07:11:48.055Z,3.78
2023-02-27T07:16:54.139Z,2.97
2023-02-27T07:21:56.328Z,3.53
2023-02-27T07:26:58.455Z,3.53
2023-02-27T07:32:01.733Z,3.92
2023-02-27T07:37:03.923Z,2.60
2023-02-27T07:42:06.223Z,3.65
2023-02-27T07:47:09.185Z,4.43
2023-02-27T07:52:11.589Z,3.20
2023-02-27T07:57:14.057Z,3.60
2023-02-27T08:02:16.129Z,4.28
2023-02-27T08:07:18.514Z,3.17
2023-02-27T08:12:20.617Z,3.08
2023-02-27T08:17:22.793Z,3.05
2023-02-27T08:22:24.909Z,3.38
2023-02-27T08:27:27.175Z,3.40
2023-02-27T08:32:29.358Z,2.80
2023-02-27T08:37:32.026Z,2.50
2023-02-27T08:42:34.711Z,2.45
2023-02-27T08:47:37.415Z,2.75
2023-02-27T08:52:39.750Z,2.38
2023-02-27T08:57:41.829Z,2.33
2023-02-27T09:02:43.965Z,2.55
2023-02-27T09:07:46.295Z,2.40
2023-02-27T09:12:49.503Z,2.35
2023-02-27T09:17:52.441Z,2.33
2023-02-27T09:22:54.553Z,1.98
2023-02-27T09:27:56.874Z,2.30
2023-02-27T09:32:59.309Z,2.47
2023-02-27T09:38:01.458Z,2.65
2023-02-27T09:43:15.754Z,2.25
2023-02-27T09:48:47.153Z,2.00
2023-02-27T09:53:52.532Z,2.33
2023-02-27T09:59:16.489Z,2.22
2023-02-27T10:04:41.506Z,2.60
2023-02-27T10:09:54.281Z,2.20
2023-02-27T10:15:06.213Z,2.63
2023-02-27T10:20:16.737Z,2.30
2023-02-27T10:25:31.373Z,1.83
2023-02-27T10:30:35.126Z,2.13
2023-02-27T10:35:46.422Z,2.00
2023-02-27T10:40:48.902Z,2.50
2023-02-27T10:45:51.229Z,2.03
2023-02-27T10:50:53.418Z,2.20
2023-02-27T10:56:05.817Z,2.05
2023-02-27T11:01:10.946Z,1.92
2023-02-27T11:06:25.332Z,2.42
2023-02-27T11:11:29.093Z,2.47
2023-02-27T11:17:03.730Z,2.20
2023-02-27T11:22:13.749Z,1.70
2023-02-27T11:27:29.260Z,2.08
2023-02-27T11:32:41.648Z,1.88
2023-02-27T11:37:49.664Z,1.83
2023-02-27T11:42:55.547Z,1.95
2023-02-27T11:48:03.145Z,1.80
2023-02-27T11:54:01.782Z,1.65
2023-02-27T11:59:20.056Z,1.77
2023-02-27T12:04:22.221Z,1.65
2023-02-27T12:09:33.115Z,1.67
2023-02-27T12:14:55.765Z,1.30
2023-02-27T12:20:09.982Z,1.88
2023-02-27T12:25:47.431Z,1.35
2023-02-27T12:31:18.106Z,1.75
2023-02-27T12:36:20.270Z,1.50
2023-02-27T12:41:31.432Z,1.88
2023-02-27T12:46:42.277Z,1.63
2023-02-27T12:51:55.481Z,1.80
2023-02-27T12:57:28.661Z,2.00
2023-02-27T13:02:37.245Z,1.67
2023-02-27T13:07:53.091Z,1.92
2023-02-27T13:13:03.577Z,1.60
2023-02-27T13:18:23.516Z,2.30
2023-02-27T13:23:35.857Z,1.50
2023-02-27T13:28:38.426Z,1.63
2023-02-27T13:34:09.895Z,1.80
2023-02-27T13:39:46.139Z,1.75
2023-02-27T13:44:48.428Z,1.98
2023-02-27T13:49:50.554Z,1.85
2023-02-27T13:54:55.214Z,1.70
2023-02-27T14:00:09.308Z,2.15
2023-02-27T14:05:30.440Z,1.90
2023-02-27T14:10:33.221Z,2.17
2023-02-27T14:15:35.949Z,3.10
2023-02-27T14:20:40.832Z,4.22
2023-02-27T14:25:46.904Z,2.42
2023-02-27T14:31:06.178Z,2.03
2023-02-27T14:36:16.012Z,2.72
2023-02-27T14:41:31.986Z,2.70
2023-02-27T14:46:38.845Z,2.90
2023-02-27T14:51:41.051Z,2.63
2023-02-27T14:56:54.825Z,2.70
2023-02-27T15:01:59.332Z,2.95
2023-02-27T15:07:01.651Z,2.50
2023-02-27T15:12:05.110Z,2.47
2023-02-27T15:17:29.475Z,2.90
2023-02-27T15:22:39.946Z,2.22
2023-02-27T15:27:42.643Z,2.40
2023-02-27T15:32:44.912Z,2.42
2023-02-27T15:37:53.173Z,2.75
2023-02-27T15:42:56.468Z,3.80
2023-02-27T15:47:59.237Z,2.63
2023-02-27T15:53:29.137Z,3.30
2023-02-27T15:59:00.857Z,3.45
2023-02-27T16:04:20.608Z,3.13
2023-02-27T16:09:29.148Z,3.13
2023-02-27T16:14:45.202Z,2.90
2023-02-27T16:19:47.416Z,2.78
2023-02-27T16:24:52.067Z,2.90
2023-02-27T16:29:57.037Z,3.90
2023-02-27T16:35:08.896Z,3.80
2023-02-27T16:40:20.002Z,4.05
2023-02-27T16:45:27.696Z,4.55
2023-02-27T16:50:35.692Z,3.38
2023-02-27T16:55:43.577Z,3.55
2023-02-27T17:00:45.877Z,3.95
2023-02-27T17:05:49.116Z,3.75
2023-02-27T17:10:53.557Z,4.47
2023-02-27T17:15:55.649Z,3.03
2023-02-27T17:21:00.974Z,3.88
2023-02-27T17:26:03.247Z,3.72
2023-02-27T17:31:15.579Z,4.15
2023-02-27T17:36:18.502Z,4.47
2023-02-27T17:41:20.617Z,4.85
2023-02-27T17:46:24.678Z,4.35
2023-02-27T17:56:30.655Z,4.13
2023-02-27T18:01:32.969Z,4.75
2023-02-27T18:06:35.082Z,4.70
2023-02-27T18:11:37.768Z,4.53
2023-02-27T18:16:40.038Z,4.30
2023-02-27T18:21:47.374Z,4.00
2023-02-27T18:26:49.450Z,4.40
2023-02-27T18:31:53.861Z,6.13
2023-02-27T18:36:58.136Z,4.53
2023-02-27T18:42:00.545Z,4.20
2023-02-27T18:47:02.756Z,4.72
2023-02-27T18:52:04.891Z,4.35
2023-02-27T18:57:07.141Z,6.40
2023-02-27T19:02:15.137Z,5.45
2023-02-27T19:07:18.389Z,3.95
2023-02-27T19:12:20.524Z,4.43
2023-02-27T19:17:22.787Z,5.70
2023-02-27T19:22:29.583Z,5.20
2023-02-27T19:27:31.877Z,6.03
2023-02-27T19:32:34.663Z,5.78
2023-02-27T19:37:36.761Z,6.55
2023-02-27T19:42:39.041Z,5.82
2023-02-27T19:47:41.225Z,6.55
2023-02-27T19:52:43.320Z,4.95
2023-02-27T19:57:45.460Z,5.03
2023-02-27T20:02:48.008Z,5.90
2023-02-27T20:07:50.180Z,6.55
2023-02-27T20:12:52.371Z,5.20
2023-02-27T20:17:55.286Z,5.72
2023-02-27T20:22:58.436Z,7.20
2023-02-27T20:28:00.573Z,6.70
2023-02-27T20:33:02.664Z,6.32
2023-02-27T20:38:06.561Z,8.73
2023-02-27T20:43:08.736Z,8.13
2023-02-27T20:48:11.400Z,8.38
2023-02-27T20:53:13.618Z,6.43
2023-02-27T20:58:16.693Z,7.70
2023-02-27T21:03:18.845Z,6.60
2023-02-27T21:08:21.074Z,9.43
2023-02-27T21:13:24.133Z,7.20
2023-02-27T21:18:26.287Z,8.95
2023-02-27T21:23:28.499Z,8.80
2023-02-27T21:28:30.625Z,11.32
2023-02-27T21:33:32.722Z,10.93
2023-02-27T21:38:34.878Z,9.55
2023-02-27T21:43:37.425Z,8.57
2023-02-27T21:48:40.195Z,11.60
2023-02-27T21:53:42.369Z,10.20
2023-02-27T21:58:44.689Z,11.07
2023-02-27T22:03:47.986Z,8.80
2023-02-27T22:08:54.088Z,9.82
2023-02-27T22:13:56.253Z,10.73
2023-02-27T22:18:58.372Z,9.27
2023-02-27T22:24:00.574Z,10.20
2023-02-27T22:29:02.841Z,11.73
2023-02-27T22:34:13.031Z,10.18
2023-02-27T22:58:44.335Z,9.85
2023-02-27T23:03:48.678Z,8.73
2023-02-27T23:08:51.305Z,9.20
2023-02-27T23:13:53.762Z,8.15
2023-02-27T23:18:59.050Z,8.35
2023-02-27T23:24:06.492Z,9.60
2023-02-27T23:29:10.059Z,6.00
2023-02-27T23:34:12.168Z,9.48
2023-02-27T23:39:14.389Z,7.53
2023-02-27T23:44:16.508Z,8.60
2023-02-27T23:49:18.747Z,7.43
2023-02-27T23:54:20.946Z,7.47
2023-02-27T23:59:23.147Z,6.20
